createdAt,value
2019-05-09T00:02:15.663Z,11.42
2019-05-09T00:04:44.135Z,11.46
2019-05-09T00:07:14.008Z,11.43
2019-05-09T00:09:44.097Z,11.39
2019-05-09T00:12:14.263Z,11.33
2019-05-09T00:14:43.374Z,11.26
2019-05-09T00:17:13.825Z,11.21
2019-05-09T00:19:43.723Z,11.15
2019-05-09T00:22:13.705Z,11.18
2019-05-09T00:24:41.803Z,11.15
2019-05-09T00:27:10.048Z,11.13
2019-05-09T00:29:44.639Z,11.02
2019-05-09T00:32:28.844Z,11.05
2019-05-09T00:35:03.887Z,11.05
2019-05-09T00:37:53.563Z,10.98
2019-05-09T00:40:23.856Z,10.97
2019-05-09T00:42:53.299Z,10.87
2019-05-09T00:45:56.233Z,10.85
2019-05-09T00:48:29.394Z,10.88
2019-05-09T00:50:57.409Z,10.87
2019-05-09T00:53:25.352Z,10.79
2019-05-09T00:55:53.299Z,10.81
2019-05-09T00:58:24.157Z,10.78
2019-05-09T01:00:53.329Z,10.71
2019-05-09T01:03:23.451Z,10.75
2019-05-09T01:05:51.266Z,10.70
2019-05-09T01:08:19.393Z,10.62
2019-05-09T01:10:47.376Z,10.57
2019-05-09T01:13:17.052Z,10.45
2019-05-09T01:15:45.179Z,10.39
2019-05-09T01:18:13.567Z,10.39
2019-05-09T01:20:41.501Z,10.32
2019-05-09T01:23:14.467Z,10.25
2019-05-09T01:25:43.636Z,10.28
2019-05-09T01:28:13.865Z,10.23
2019-05-09T01:30:43.772Z,10.22
2019-05-09T01:33:49.144Z,10.20
2019-05-09T01:36:17.219Z,10.18
2019-05-09T01:38:45.294Z,10.17
2019-05-09T01:41:26.823Z,10.12
2019-05-09T01:43:44.297Z,10.09
2019-05-09T01:46:14.447Z,10.04
2019-05-09T01:48:43.187Z,10.02
2019-05-09T01:51:13.700Z,9.96
2019-05-09T01:53:47.807Z,9.94
2019-05-09T01:56:15.605Z,9.94
2019-05-09T01:58:43.667Z,10.02
2019-05-09T02:01:13.461Z,10.24
2019-05-09T02:03:43.710Z,10.37
2019-05-09T02:06:13.692Z,10.33
2019-05-09T02:08:43.816Z,10.35
2019-05-09T02:11:13.230Z,10.39
2019-05-09T02:13:41.567Z,10.30
2019-05-09T02:16:24.140Z,10.41
2019-05-09T02:19:03.937Z,10.40
2019-05-09T02:21:31.695Z,10.40
2019-05-09T02:23:59.621Z,10.42
2019-05-09T02:26:27.522Z,10.44
2019-05-09T02:28:56.603Z,10.42
2019-05-09T02:31:24.852Z,10.45
2019-05-09T02:33:54.140Z,10.48
2019-05-09T02:36:22.440Z,10.53
2019-05-09T02:38:50.414Z,10.55
2019-05-09T02:41:19.693Z,10.54
2019-05-09T02:43:49.562Z,10.56
2019-05-09T02:46:33.382Z,10.57
2019-05-09T02:49:01.530Z,10.54
2019-05-09T02:51:29.579Z,10.57
2019-05-09T02:53:58.514Z,10.36
2019-05-09T02:56:29.516Z,10.58
2019-05-09T02:59:18.964Z,10.62
2019-05-09T03:02:12.969Z,10.63
2019-05-09T03:04:41.063Z,10.70
2019-05-09T03:07:09.889Z,10.71
2019-05-09T03:09:38.910Z,10.71
2019-05-09T03:12:22.963Z,10.71
2019-05-09T03:14:38.482Z,10.57
2019-05-09T03:17:08.764Z,10.68
2019-05-09T03:19:38.631Z,10.67
2019-05-09T03:22:11.955Z,10.68
2019-05-09T03:24:39.909Z,10.71
2019-05-09T03:27:14.029Z,10.67
2019-05-09T03:29:49.175Z,10.66
2019-05-09T03:32:19.569Z,10.73
2019-05-09T03:34:47.786Z,10.75
2019-05-09T03:37:17.645Z,10.73
2019-05-09T03:39:47.823Z,10.74
2019-05-09T03:42:20.707Z,10.76
2019-05-09T03:44:47.667Z,10.70
2019-05-09T03:47:21.782Z,10.71
2019-05-09T03:50:08.442Z,10.73
2019-05-09T03:52:37.287Z,10.71
2019-05-09T03:55:07.330Z,10.70
2019-05-09T03:57:38.471Z,10.65
2019-05-09T04:00:07.703Z,10.63
2019-05-09T04:02:35.792Z,10.69
2019-05-09T04:07:44.079Z,10.72
2019-05-09T04:10:12.131Z,10.69
2019-05-09T04:12:52.778Z,10.74
2019-05-09T04:15:10.330Z,10.71
2019-05-09T04:17:42.691Z,10.70
2019-05-09T04:20:11.908Z,10.63
2019-05-09T04:22:39.846Z,10.63
2019-05-09T04:25:08.766Z,10.65
2019-05-09T04:27:37.515Z,10.61
2019-05-09T04:30:08.694Z,10.56
2019-05-09T04:32:35.155Z,10.53
2019-05-09T04:35:03.471Z,10.47
2019-05-09T04:37:31.522Z,10.38
2019-05-09T04:40:03.275Z,10.23
2019-05-09T04:42:29.473Z,10.38
2019-05-09T04:45:03.492Z,10.42
2019-05-09T04:47:33.791Z,10.41
2019-05-09T04:50:01.535Z,10.37
2019-05-09T04:52:29.678Z,10.28
2019-05-09T04:54:57.712Z,10.34
2019-05-09T04:57:27.755Z,10.34
2019-05-09T04:59:57.407Z,10.36
2019-05-09T05:02:34.716Z,10.36
2019-05-09T05:05:02.790Z,10.32
2019-05-09T05:07:30.911Z,10.33
2019-05-09T05:09:58.922Z,10.30
2019-05-09T05:12:27.758Z,10.29
2019-05-09T05:14:57.942Z,10.27
2019-05-09T05:17:30.231Z,10.25
2019-05-09T05:19:57.858Z,10.25
2019-05-09T05:22:40.915Z,10.25
2019-05-09T05:25:09.470Z,10.26
2019-05-09T05:27:38.276Z,10.24
2019-05-09T05:30:07.570Z,10.21
2019-05-09T05:32:44.629Z,10.19
2019-05-09T05:35:22.802Z,10.20
2019-05-09T05:37:51.904Z,10.24
2019-05-09T05:40:20.038Z,10.29
2019-05-09T05:42:48.109Z,10.22
2019-05-09T05:45:18.106Z,10.20
2019-05-09T05:47:58.911Z,10.19
2019-05-09T05:50:28.083Z,10.18
2019-05-09T05:52:57.766Z,10.16
2019-05-09T05:55:27.429Z,10.13
2019-05-09T05:57:57.717Z,10.11
2019-05-09T06:00:28.353Z,10.14
2019-05-09T06:02:58.581Z,10.11
2019-05-09T06:05:27.832Z,10.17
2019-05-09T06:07:57.768Z,10.18
2019-05-09T06:10:28.787Z,10.19
2019-05-09T06:12:57.537Z,10.16
2019-05-09T06:15:25.628Z,10.17
2019-05-09T06:17:53.432Z,10.28
2019-05-09T06:20:21.985Z,10.34
2019-05-09T06:22:50.206Z,10.45
2019-05-09T06:25:20.560Z,10.42
2019-05-09T06:27:48.325Z,10.59
2019-05-09T06:30:28.275Z,10.79
2019-05-09T06:32:58.053Z,11.07
2019-05-09T06:35:28.199Z,11.27
2019-05-09T06:37:58.443Z,11.53
2019-05-09T06:40:28.470Z,11.56
2019-05-09T06:42:58.938Z,11.52
2019-05-09T06:45:42.770Z,11.44
2019-05-09T06:48:11.383Z,11.36
2019-05-09T06:50:39.456Z,11.26
2019-05-09T06:53:08.139Z,11.12
2019-05-09T06:55:38.395Z,11.21
2019-05-09T06:58:23.998Z,11.27
2019-05-09T07:00:59.359Z,11.27
2019-05-09T07:03:28.396Z,11.21
2019-05-09T07:06:11.012Z,11.22
2019-05-09T07:08:44.529Z,11.17
2019-05-09T07:11:12.585Z,11.18
2019-05-09T07:13:41.146Z,11.13
2019-05-09T07:16:09.093Z,11.13
2019-05-09T07:18:38.256Z,11.11
2019-05-09T07:21:08.248Z,11.18
2019-05-09T07:23:37.328Z,11.14
2019-05-09T07:26:13.548Z,11.05
2019-05-09T07:28:41.804Z,11.23
2019-05-09T07:31:24.658Z,11.23
2019-05-09T07:34:27.734Z,11.22
2019-05-09T07:36:58.088Z,11.19
2019-05-09T07:39:27.647Z,11.21
2019-05-09T07:41:55.513Z,11.08
2019-05-09T07:44:23.421Z,11.28
2019-05-09T07:46:59.121Z,11.27
2019-05-09T07:49:28.349Z,11.34
2019-05-09T07:51:59.103Z,11.52
2019-05-09T07:54:29.225Z,11.50
2019-05-09T07:56:57.986Z,11.61
2019-05-09T07:59:27.419Z,11.59
2019-05-09T08:01:58.093Z,11.71
2019-05-09T08:04:28.343Z,11.81
2019-05-09T08:06:57.716Z,11.79
2019-05-09T08:09:28.085Z,11.78
2019-05-09T08:11:58.543Z,11.85
2019-05-09T08:14:28.125Z,11.93
2019-05-09T08:16:58.044Z,11.88
2019-05-09T08:19:27.501Z,11.85
2019-05-09T08:21:57.533Z,11.91
2019-05-09T08:24:27.805Z,12.00
2019-05-09T08:26:58.105Z,12.12
2019-05-09T08:29:28.199Z,12.13
2019-05-09T08:31:58.262Z,12.14
2019-05-09T08:34:28.286Z,12.07
2019-05-09T08:36:58.036Z,12.24
2019-05-09T08:39:27.649Z,12.18
2019-05-09T08:41:58.967Z,12.27
2019-05-09T08:44:30.402Z,12.31
2019-05-09T08:46:57.424Z,12.21
2019-05-09T08:49:31.441Z,12.22
2019-05-09T08:52:15.745Z,12.37
2019-05-09T08:54:40.978Z,12.42
2019-05-09T08:57:09.042Z,12.45
2019-05-09T08:59:38.312Z,12.49
2019-05-09T09:02:16.594Z,12.55
2019-05-09T09:04:38.377Z,12.62
2019-05-09T09:07:08.409Z,12.76
2019-05-09T09:09:37.860Z,12.72
2019-05-09T09:12:25.284Z,12.90
2019-05-09T09:14:38.468Z,13.10
2019-05-09T09:17:07.886Z,13.32
2019-05-09T09:19:38.390Z,13.43
2019-05-09T09:22:08.613Z,13.52
2019-05-09T09:24:37.552Z,13.73
2019-05-09T09:27:07.707Z,14.00
2019-05-09T09:29:38.062Z,14.05
2019-05-09T09:32:08.034Z,13.83
2019-05-09T09:34:37.800Z,14.14
2019-05-09T09:37:10.319Z,14.28
2019-05-09T09:39:43.296Z,14.19
2019-05-09T09:42:08.761Z,14.44
2019-05-09T09:44:35.575Z,14.42
2019-05-09T09:47:03.804Z,14.28
2019-05-09T09:49:31.886Z,14.31
2019-05-09T09:52:00.211Z,14.22
2019-05-09T09:54:28.257Z,14.11
2019-05-09T09:56:58.522Z,14.31
2019-05-09T09:59:37.782Z,14.56
2019-05-09T10:02:09.973Z,14.91
2019-05-09T10:04:37.543Z,14.71
2019-05-09T10:07:05.315Z,14.68
2019-05-09T10:09:33.292Z,14.58
2019-05-09T10:12:01.293Z,14.76
2019-05-09T10:14:33.035Z,14.75
2019-05-09T10:17:21.936Z,14.81
2019-05-09T10:20:14.888Z,15.13
2019-05-09T10:22:46.457Z,15.36
2019-05-09T10:25:13.093Z,15.23
2019-05-09T10:27:41.499Z,15.06
2019-05-09T10:30:10.013Z,15.18
2019-05-09T10:32:38.444Z,14.98
2019-05-09T10:35:08.786Z,14.53
2019-05-09T10:37:39.258Z,14.77
2019-05-09T10:40:06.538Z,14.67
2019-05-09T10:42:43.417Z,14.72
2019-05-09T10:45:40.790Z,14.99
2019-05-09T10:48:09.026Z,14.77
2019-05-09T10:50:43.919Z,14.65
2019-05-09T10:53:08.042Z,14.53
2019-05-09T10:55:38.476Z,14.52
2019-05-09T10:58:08.144Z,14.58
2019-05-09T11:00:39.293Z,14.56
2019-05-09T11:03:08.706Z,14.50
2019-05-09T11:05:36.786Z,14.25
2019-05-09T11:08:04.780Z,14.34
2019-05-09T11:10:33.110Z,14.20
2019-05-09T11:13:01.113Z,14.06
2019-05-09T11:15:29.197Z,14.06
2019-05-09T11:17:57.787Z,13.74
2019-05-09T11:20:28.426Z,13.60
2019-05-09T11:22:58.203Z,13.48
2019-05-09T11:25:27.756Z,13.60
2019-05-09T11:28:10.075Z,13.74
2019-05-09T11:30:27.959Z,13.89
2019-05-09T11:32:55.616Z,13.95
2019-05-09T11:35:23.793Z,14.20
2019-05-09T11:37:51.872Z,14.33
2019-05-09T11:40:19.886Z,14.44
2019-05-09T11:42:48.340Z,14.48
2019-05-09T11:45:17.944Z,14.49
2019-05-09T11:47:46.744Z,14.43
2019-05-09T11:50:14.864Z,14.32
2019-05-09T11:52:42.838Z,14.23
2019-05-09T11:55:28.672Z,14.33
2019-05-09T11:57:40.747Z,14.12
2019-05-09T12:00:09.371Z,14.16
2019-05-09T12:02:38.473Z,14.18
2019-05-09T12:05:08.798Z,14.12
2019-05-09T12:07:37.928Z,14.03
2019-05-09T12:10:07.864Z,13.99
2019-05-09T12:12:38.844Z,13.88
2019-05-09T12:15:08.820Z,13.89
2019-05-09T12:17:51.002Z,14.00
2019-05-09T12:20:12.561Z,13.90
2019-05-09T12:22:37.623Z,13.88
2019-05-09T12:25:08.388Z,13.72
2019-05-09T12:27:35.523Z,13.74
2019-05-09T12:30:03.585Z,13.89
2019-05-09T12:32:31.798Z,13.82
2019-05-09T12:34:59.718Z,13.85
2019-05-09T12:37:28.223Z,13.98
2019-05-09T12:39:58.392Z,14.06
2019-05-09T12:42:28.926Z,14.11
2019-05-09T12:44:55.906Z,14.04
2019-05-09T12:47:23.545Z,13.94
2019-05-09T12:49:51.577Z,13.97
2019-05-09T12:52:19.631Z,13.69
2019-05-09T12:54:48.285Z,13.64
2019-05-09T12:57:19.210Z,13.71
2019-05-09T12:59:52.308Z,13.83
2019-05-09T13:02:17.783Z,13.85
2019-05-09T13:04:47.622Z,13.81
2019-05-09T13:07:15.435Z,13.92
2019-05-09T13:09:43.648Z,13.82
2019-05-09T13:12:11.693Z,13.74
2019-05-09T13:14:39.773Z,13.50
2019-05-09T13:17:30.157Z,13.48
2019-05-09T13:19:58.648Z,13.42
2019-05-09T13:22:28.408Z,13.40
2019-05-09T13:24:58.660Z,13.52
2019-05-09T13:27:28.457Z,13.55
2019-05-09T13:29:57.081Z,13.68
2019-05-09T13:32:24.911Z,13.55
2019-05-09T13:34:52.830Z,13.63
2019-05-09T13:37:20.667Z,13.54
2019-05-09T13:39:48.675Z,13.62
2019-05-09T13:42:19.613Z,13.69
2019-05-09T13:44:47.545Z,13.72
2019-05-09T13:47:17.844Z,13.76
2019-05-09T13:49:45.427Z,13.72
2019-05-09T13:52:13.374Z,13.59
2019-05-09T13:54:41.304Z,13.66
2019-05-09T13:57:09.371Z,13.63
2019-05-09T13:59:37.582Z,13.67
2019-05-09T14:02:05.873Z,13.70
2019-05-09T14:04:33.886Z,13.67
2019-05-09T14:07:02.011Z,13.79
2019-05-09T14:09:29.940Z,13.80
2019-05-09T14:11:58.910Z,13.76
2019-05-09T14:14:28.144Z,13.66
2019-05-09T14:16:58.996Z,13.72
2019-05-09T14:19:39.864Z,13.61
2019-05-09T14:21:58.591Z,13.57
2019-05-09T14:24:27.929Z,13.56
2019-05-09T14:26:58.264Z,13.58
2019-05-09T14:29:31.641Z,13.67
2019-05-09T14:31:57.319Z,13.67
2019-05-09T14:34:25.431Z,13.82
2019-05-09T14:36:53.490Z,13.98
2019-05-09T14:39:23.021Z,14.10
2019-05-09T14:41:51.396Z,14.05
2019-05-09T14:44:19.567Z,14.11
2019-05-09T14:46:48.163Z,14.25
2019-05-09T14:49:17.571Z,14.43
2019-05-09T14:51:46.780Z,14.46
2019-05-09T14:54:14.736Z,14.41
2019-05-09T14:56:42.900Z,14.47
2019-05-09T14:59:10.905Z,14.42
2019-05-09T15:01:43.265Z,14.18
2019-05-09T15:04:09.152Z,14.09
2019-05-09T15:06:37.106Z,14.08
2019-05-09T15:09:08.234Z,14.04
2019-05-09T15:11:39.463Z,13.89
2019-05-09T15:14:08.329Z,13.94
2019-05-09T15:16:38.866Z,14.06
2019-05-09T15:19:08.367Z,13.99
2019-05-09T15:21:38.177Z,13.92
2019-05-09T15:24:08.893Z,14.06
2019-05-09T15:26:37.372Z,14.07
2019-05-09T15:29:07.943Z,14.14
2019-05-09T15:31:35.940Z,14.07
2019-05-09T15:34:05.060Z,14.02
2019-05-09T15:36:32.955Z,13.92
2019-05-09T15:39:00.956Z,13.82
2019-05-09T15:41:29.057Z,13.91
2019-05-09T15:43:57.942Z,13.88
2019-05-09T15:46:31.846Z,13.97
2019-05-09T15:48:59.912Z,14.07
2019-05-09T15:51:28.061Z,14.15
2019-05-09T15:53:57.739Z,14.13
2019-05-09T15:56:28.820Z,13.90
2019-05-09T15:58:58.005Z,14.08
2019-05-09T16:01:28.050Z,14.13
2019-05-09T16:03:56.302Z,14.17
2019-05-09T16:06:24.553Z,14.19
2019-05-09T16:08:52.478Z,14.10
2019-05-09T16:11:20.692Z,14.12
2019-05-09T16:13:48.730Z,14.05
2019-05-09T16:16:17.557Z,14.07
2019-05-09T16:18:48.340Z,14.23
2019-05-09T16:21:15.905Z,14.33
2019-05-09T16:23:43.882Z,14.25
2019-05-09T16:26:11.994Z,14.14
2019-05-09T16:28:39.891Z,14.07
2019-05-09T16:31:07.952Z,13.94
2019-05-09T16:33:35.804Z,13.86
2019-05-09T16:36:03.696Z,13.82
2019-05-09T16:38:42.075Z,13.69
2019-05-09T16:41:01.578Z,13.62
2019-05-09T16:43:29.813Z,13.49
2019-05-09T16:45:58.250Z,13.44
2019-05-09T16:48:27.653Z,13.46
2019-05-09T16:51:01.356Z,13.41
2019-05-09T16:53:27.769Z,13.31
2019-05-09T16:55:57.701Z,13.15
2019-05-09T16:58:27.451Z,13.13
2019-05-09T17:00:55.580Z,12.94
2019-05-09T17:03:23.800Z,12.77
2019-05-09T17:05:51.819Z,12.74
2019-05-09T17:08:19.937Z,12.74
2019-05-09T17:10:48.797Z,12.41
2019-05-09T17:13:18.384Z,12.42
2019-05-09T17:15:46.696Z,12.39
2019-05-09T17:18:15.136Z,12.38
2019-05-09T17:21:15.199Z,12.34
2019-05-09T17:23:32.605Z,12.31
2019-05-09T17:26:00.725Z,12.31
2019-05-09T17:28:29.848Z,12.23
2019-05-09T17:30:58.117Z,12.26
2019-05-09T17:33:28.785Z,12.19
2019-05-09T17:35:57.777Z,12.14
2019-05-09T17:38:28.997Z,12.07
2019-05-09T17:40:57.865Z,12.02
2019-05-09T17:43:27.827Z,12.02
2019-05-09T17:45:58.205Z,11.98
2019-05-09T17:48:28.488Z,11.90
2019-05-09T17:50:57.901Z,11.91
2019-05-09T17:53:28.620Z,11.88
2019-05-09T17:55:58.368Z,11.84
2019-05-09T17:58:32.837Z,11.76
2019-05-09T18:00:57.709Z,11.68
2019-05-09T18:03:25.593Z,11.57
2019-05-09T18:05:53.621Z,11.51
2019-05-09T18:08:21.686Z,11.46
2019-05-09T18:10:49.685Z,11.37
2019-05-09T18:13:23.655Z,11.29
2019-05-09T18:15:48.357Z,11.17
2019-05-09T18:18:18.509Z,11.03
2019-05-09T18:20:46.290Z,10.92
2019-05-09T18:23:14.209Z,10.84
2019-05-09T18:25:42.251Z,10.73
2019-05-09T18:28:10.334Z,10.59
2019-05-09T18:30:38.932Z,10.48
2019-05-09T18:33:20.303Z,10.42
2019-05-09T18:35:48.341Z,10.30
2019-05-09T18:38:23.839Z,10.19
2019-05-09T18:40:51.988Z,10.11
2019-05-09T18:43:20.101Z,10.05
2019-05-09T18:45:48.267Z,9.92
2019-05-09T18:48:18.529Z,9.83
2019-05-09T18:50:46.133Z,9.54
2019-05-09T18:53:14.134Z,9.65
2019-05-09T18:55:42.046Z,9.61
2019-05-09T18:58:10.150Z,9.59
2019-05-09T19:01:00.372Z,9.34
2019-05-09T19:03:30.468Z,9.42
2019-05-09T19:06:00.034Z,9.34
2019-05-09T19:08:28.158Z,9.28
2019-05-09T19:10:56.304Z,9.03
2019-05-09T19:13:24.252Z,9.15
2019-05-09T19:16:02.280Z,9.10
2019-05-09T19:18:46.341Z,9.10
2019-05-09T19:21:18.263Z,9.07
2019-05-09T19:23:46.222Z,8.94
2019-05-09T19:26:32.030Z,8.91
2019-05-09T19:28:59.916Z,8.67
2019-05-09T19:31:28.144Z,8.78
2019-05-09T19:33:57.051Z,8.65
2019-05-09T19:36:25.127Z,8.64
2019-05-09T19:38:52.881Z,8.60
2019-05-09T19:41:20.957Z,8.58
2019-05-09T19:43:48.908Z,8.54
2019-05-09T19:46:17.195Z,8.61
2019-05-09T19:48:45.237Z,8.52
2019-05-09T19:51:14.607Z,8.37
2019-05-09T19:53:42.514Z,8.29
2019-05-09T19:56:10.513Z,8.23
2019-05-09T19:58:38.439Z,8.06
2019-05-09T20:01:06.476Z,8.22
2019-05-09T20:03:34.170Z,8.16
2019-05-09T20:06:02.377Z,8.10
2019-05-09T20:08:34.012Z,8.12
2019-05-09T20:11:29.175Z,8.07
2019-05-09T20:14:17.075Z,7.98
2019-05-09T20:16:48.098Z,7.99
2019-05-09T20:19:16.246Z,7.96
2019-05-09T20:21:44.296Z,7.88
2019-05-09T20:24:12.286Z,7.94
2019-05-09T20:26:40.338Z,7.95
2019-05-09T20:29:08.380Z,7.83
2019-05-09T20:31:36.372Z,7.71
2019-05-09T20:34:04.465Z,7.76
2019-05-09T20:36:32.419Z,7.64
2019-05-09T20:39:00.324Z,7.62
2019-05-09T20:41:28.347Z,7.59
2019-05-09T20:43:56.268Z,7.63
2019-05-09T20:46:24.297Z,7.51
2019-05-09T20:48:52.367Z,7.62
2019-05-09T20:51:20.470Z,7.52
2019-05-09T20:53:48.532Z,7.55
2019-05-09T20:56:16.569Z,7.54
2019-05-09T20:58:44.486Z,7.48
2019-05-09T21:01:12.406Z,7.50
2019-05-09T21:03:40.107Z,7.51
2019-05-09T21:06:08.321Z,7.43
2019-05-09T21:08:36.388Z,7.51
2019-05-09T21:11:04.610Z,7.30
2019-05-09T21:13:47.530Z,7.37
2019-05-09T21:16:02.878Z,7.21
2019-05-09T21:18:31.062Z,7.14
2019-05-09T21:20:59.154Z,7.26
2019-05-09T21:23:27.146Z,7.18
2019-05-09T21:25:55.148Z,7.13
2019-05-09T21:28:23.242Z,7.13
2019-05-09T21:30:51.296Z,7.32
2019-05-09T21:33:19.250Z,7.30
2019-05-09T21:35:47.671Z,7.34
2019-05-09T21:38:16.669Z,7.27
2019-05-09T21:40:44.910Z,7.29
2019-05-09T21:43:12.772Z,7.27
2019-05-09T21:45:40.735Z,7.19
2019-05-09T21:48:08.851Z,7.14
2019-05-09T21:50:36.788Z,7.09
2019-05-09T21:53:04.876Z,7.02
2019-05-09T21:55:32.649Z,7.05
2019-05-09T21:58:00.644Z,6.93
2019-05-09T22:00:33.732Z,7.02
2019-05-09T22:03:01.833Z,7.01
2019-05-09T22:05:29.948Z,6.91
2019-05-09T22:07:58.887Z,6.90
2019-05-09T22:10:27.168Z,6.81
2019-05-09T22:12:55.313Z,6.74
2019-05-09T22:15:23.207Z,6.67
2019-05-09T22:17:51.254Z,6.75
2019-05-09T22:20:19.549Z,6.82
2019-05-09T22:22:47.561Z,6.78
2019-05-09T22:25:15.451Z,6.75
2019-05-09T22:27:43.512Z,6.70
2019-05-09T22:30:13.413Z,6.69
2019-05-09T22:32:41.577Z,6.72
2019-05-09T22:35:09.783Z,6.58
2019-05-09T22:37:37.442Z,6.61
2019-05-09T22:40:05.445Z,6.54
2019-05-09T22:42:33.385Z,6.51
2019-05-09T22:45:04.103Z,6.46
2019-05-09T22:47:32.189Z,6.53
2019-05-09T22:50:00.370Z,6.63
2019-05-09T22:52:28.337Z,6.50
2019-05-09T22:54:56.271Z,6.46
2019-05-09T22:57:23.937Z,6.40
2019-05-09T22:59:51.928Z,6.28
2019-05-09T23:02:20.022Z,6.21
2019-05-09T23:04:47.872Z,6.24
2019-05-09T23:07:15.753Z,6.36
2019-05-09T23:09:43.583Z,6.35
2019-05-09T23:12:11.503Z,6.35
2019-05-09T23:14:39.410Z,6.28
2019-05-09T23:17:07.937Z,6.06
2019-05-09T23:19:35.967Z,6.21
2019-05-09T23:22:04.592Z,6.10
2019-05-09T23:24:33.459Z,6.00
2019-05-09T23:27:01.373Z,6.06
2019-05-09T23:29:29.420Z,6.15
2019-05-09T23:32:03.788Z,6.02
2019-05-09T23:34:31.801Z,6.05
2019-05-09T23:37:00.773Z,6.05
2019-05-09T23:39:32.838Z,6.01
2019-05-09T23:42:00.919Z,6.02
2019-05-09T23:44:28.807Z,6.11
2019-05-09T23:46:56.826Z,6.16
2019-05-09T23:49:24.886Z,6.14
2019-05-09T23:51:52.884Z,6.14
2019-05-09T23:54:47.807Z,6.15
2019-05-09T23:57:27.492Z,6.24
